createdAt,value
2018-09-18T00:00:36.910Z,8.90
2018-09-18T00:03:06.338Z,8.50
2018-09-18T00:05:35.651Z,9.70
2018-09-18T00:08:04.982Z,9.30
2018-09-18T00:10:34.201Z,9.43
2018-09-18T00:13:03.527Z,8.87
2018-09-18T00:15:32.837Z,8.20
2018-09-18T00:18:02.075Z,8.73
2018-09-18T00:20:31.417Z,9.57
2018-09-18T00:23:00.968Z,8.67
2018-09-18T00:25:30.268Z,8.73
2018-09-18T00:27:59.547Z,10.53
2018-09-18T00:30:30.822Z,9.53
2018-09-18T00:33:01.341Z,8.10
2018-09-18T00:35:31.048Z,8.80
2018-09-18T00:38:00.739Z,7.90
2018-09-18T00:40:30.164Z,8.60
2018-09-18T00:42:59.576Z,9.20
2018-09-18T00:45:29.066Z,9.50
2018-09-18T00:47:58.615Z,9.50
2018-09-18T00:50:28.334Z,9.43
2018-09-18T00:52:57.873Z,8.80
2018-09-18T00:55:28.422Z,8.60
2018-09-18T00:57:57.828Z,8.63
2018-09-18T01:00:27.121Z,9.57
2018-09-18T01:02:56.445Z,10.70
2018-09-18T01:05:25.839Z,9.70
2018-09-18T01:07:56.187Z,9.13
2018-09-18T01:10:25.799Z,9.17
2018-09-18T01:12:55.063Z,9.20
2018-09-18T01:15:25.748Z,9.20
2018-09-18T01:17:56.847Z,9.93
2018-09-18T01:20:28.650Z,9.90
2018-09-18T01:22:59.082Z,8.70
2018-09-18T01:25:28.446Z,9.63
2018-09-18T01:27:57.711Z,9.47
2018-09-18T01:30:27.152Z,9.20
2018-09-18T01:32:56.610Z,11.20
2018-09-18T01:35:26.087Z,9.33
2018-09-18T01:37:55.571Z,9.17
2018-09-18T01:40:24.850Z,9.17
2018-09-18T01:42:54.205Z,9.50
2018-09-18T01:45:23.685Z,9.33
2018-09-18T01:47:53.255Z,8.67
2018-09-18T01:50:22.609Z,8.97
2018-09-18T01:52:52.890Z,10.13
2018-09-18T01:55:22.057Z,9.33
2018-09-18T01:57:51.420Z,9.27
2018-09-18T02:00:20.689Z,10.40
2018-09-18T02:02:50.004Z,9.40
2018-09-18T02:05:19.007Z,9.17
2018-09-18T02:07:48.359Z,8.70
2018-09-18T02:10:17.642Z,9.23
2018-09-18T02:12:46.982Z,9.60
2018-09-18T02:15:16.846Z,8.60
2018-09-18T02:17:46.296Z,8.33
2018-09-18T02:20:15.719Z,9.20
2018-09-18T02:22:45.109Z,8.83
2018-09-18T02:25:14.444Z,9.57
2018-09-18T02:27:43.792Z,10.50
2018-09-18T02:30:13.122Z,9.57
2018-09-18T02:32:43.259Z,9.27
2018-09-18T02:35:12.685Z,9.13
2018-09-18T02:37:42.483Z,10.03
2018-09-18T02:40:11.760Z,8.90
2018-09-18T02:42:41.361Z,9.77
2018-09-18T02:45:11.172Z,10.07
2018-09-18T02:47:40.688Z,9.30
2018-09-18T02:50:10.494Z,10.17
2018-09-18T02:52:39.873Z,10.73
2018-09-18T02:55:09.202Z,11.13
2018-09-18T02:57:38.549Z,9.60
2018-09-18T03:00:07.920Z,10.07
2018-09-18T03:02:37.502Z,9.73
2018-09-18T03:05:07.567Z,10.33
2018-09-18T03:07:37.148Z,9.73
2018-09-18T03:10:06.828Z,9.33
2018-09-18T03:12:36.210Z,9.57
2018-09-18T03:15:05.483Z,9.70
2018-09-18T03:17:34.864Z,9.97
2018-09-18T03:20:04.080Z,9.43
2018-09-18T03:22:44.342Z,9.37
2018-09-18T03:25:13.809Z,9.80
2018-09-18T03:27:42.964Z,9.97
2018-09-18T03:30:12.606Z,9.33
2018-09-18T03:35:48.427Z,10.50
2018-09-18T03:38:18.087Z,10.97
2018-09-18T03:40:47.544Z,10.80
2018-09-18T03:43:17.167Z,10.60
2018-09-18T03:45:46.507Z,10.00
2018-09-18T03:48:15.796Z,9.53
2018-09-18T03:50:44.997Z,9.93
2018-09-18T03:53:14.371Z,9.53
2018-09-18T03:55:45.066Z,9.13
2018-09-18T03:58:14.493Z,9.73
2018-09-18T04:00:43.975Z,10.50
2018-09-18T04:03:13.350Z,9.63
2018-09-18T04:05:42.962Z,10.00
2018-09-18T04:08:12.472Z,8.53
2018-09-18T04:10:41.545Z,10.13
2018-09-18T04:13:10.979Z,10.20
2018-09-18T04:15:41.360Z,9.30
2018-09-18T04:18:11.953Z,9.03
2018-09-18T04:20:41.526Z,8.07
2018-09-18T04:23:12.133Z,9.43
2018-09-18T04:25:41.675Z,10.03
2018-09-18T04:28:11.286Z,10.53
2018-09-18T04:30:41.131Z,10.90
2018-09-18T04:33:10.715Z,8.80
2018-09-18T04:35:40.141Z,8.43
2018-09-18T04:38:09.712Z,10.40
2018-09-18T04:40:39.280Z,9.40
2018-09-18T04:43:09.138Z,9.53
2018-09-18T04:45:38.834Z,10.90
2018-09-18T04:48:09.172Z,10.23
2018-09-18T04:50:38.540Z,10.03
2018-09-18T04:53:08.492Z,10.93
2018-09-18T04:55:38.227Z,11.00
2018-09-18T04:58:08.324Z,10.67
2018-09-18T05:00:37.895Z,9.90
2018-09-18T05:03:07.366Z,9.43
2018-09-18T05:05:36.835Z,9.60
2018-09-18T05:08:06.349Z,9.80
2018-09-18T05:10:36.049Z,10.83
2018-09-18T05:13:05.466Z,10.10
2018-09-18T05:15:34.702Z,9.70
2018-09-18T05:18:04.365Z,10.53
2018-09-18T05:20:33.898Z,10.83
2018-09-18T05:23:03.586Z,11.50
2018-09-18T05:25:33.460Z,12.07
2018-09-18T05:28:03.307Z,11.00
2018-09-18T05:30:32.947Z,10.30
2018-09-18T05:33:02.455Z,9.50
2018-09-18T05:35:31.754Z,9.87
2018-09-18T05:38:02.626Z,10.83
2018-09-18T05:40:33.858Z,10.60
2018-09-18T05:43:03.460Z,9.20
2018-09-18T05:45:35.927Z,8.73
2018-09-18T05:48:09.259Z,9.10
2018-09-18T05:50:39.816Z,9.60
2018-09-18T05:53:11.023Z,9.97
2018-09-18T05:55:42.121Z,7.27
2018-09-18T05:58:13.090Z,9.20
2018-09-18T06:00:43.407Z,9.63
2018-09-18T06:03:14.038Z,7.97
2018-09-18T06:05:44.707Z,9.17
2018-09-18T06:08:15.409Z,8.90
2018-09-18T06:10:45.990Z,8.50
2018-09-18T06:13:15.967Z,9.83
2018-09-18T06:15:45.670Z,10.00
2018-09-18T06:18:17.972Z,10.57
2018-09-18T06:20:47.713Z,9.60
2018-09-18T06:23:18.861Z,10.97
2018-09-18T06:25:50.577Z,11.63
2018-09-18T06:28:22.610Z,11.60
2018-09-18T06:30:53.220Z,9.80
2018-09-18T06:33:24.722Z,10.93
2018-09-18T06:35:55.072Z,11.45
2018-09-18T06:38:24.680Z,12.70
2018-09-18T06:40:54.272Z,11.67
2018-09-18T06:43:24.144Z,10.77
2018-09-18T06:45:53.675Z,11.73
2018-09-18T06:48:23.648Z,11.13
2018-09-18T06:50:53.594Z,11.33
2018-09-18T06:53:22.980Z,11.13
2018-09-18T06:55:52.519Z,11.80
2018-09-18T06:58:22.061Z,11.37
2018-09-18T07:00:51.483Z,10.00
2018-09-18T07:03:20.810Z,10.83
2018-09-18T07:05:51.142Z,8.97
2018-09-18T07:08:20.639Z,10.13
2018-09-18T07:10:49.985Z,10.60
2018-09-18T07:13:20.508Z,10.80
2018-09-18T07:15:49.854Z,10.90
2018-09-18T07:18:19.346Z,9.67
2018-09-18T07:20:48.676Z,11.60
2018-09-18T07:23:18.117Z,10.70
2018-09-18T07:25:47.718Z,9.33
2018-09-18T07:28:17.301Z,9.00
2018-09-18T07:30:47.058Z,9.70
2018-09-18T07:33:16.355Z,9.73
2018-09-18T07:35:45.766Z,10.20
2018-09-18T07:38:15.132Z,10.10
2018-09-18T07:40:44.783Z,10.77
2018-09-18T07:43:14.264Z,10.23
2018-09-18T07:45:43.848Z,9.83
2018-09-18T07:48:13.403Z,9.30
2018-09-18T07:50:42.806Z,10.10
2018-09-18T07:53:12.136Z,10.90
2018-09-18T07:55:41.680Z,10.17
2018-09-18T07:58:11.018Z,11.90
2018-09-18T08:00:40.923Z,10.13
2018-09-18T08:03:10.465Z,11.07
2018-09-18T08:05:39.790Z,10.60
2018-09-18T08:08:09.224Z,11.60
2018-09-18T08:10:38.645Z,11.80
2018-09-18T08:13:08.061Z,12.20
2018-09-18T08:15:37.387Z,14.37
2018-09-18T08:18:06.789Z,11.90
2018-09-18T08:20:36.389Z,12.10
2018-09-18T08:23:05.876Z,11.57
2018-09-18T08:25:35.213Z,12.73
2018-09-18T08:28:04.566Z,12.17
2018-09-18T08:30:34.027Z,12.10
2018-09-18T08:33:03.297Z,12.80
2018-09-18T08:35:32.846Z,12.90
2018-09-18T08:38:02.312Z,12.23
2018-09-18T08:40:31.830Z,13.13
2018-09-18T08:43:01.185Z,13.10
2018-09-18T08:45:30.955Z,12.63
2018-09-18T08:48:00.317Z,12.77
2018-09-18T08:50:30.619Z,13.50
2018-09-18T08:53:00.057Z,12.50
2018-09-18T08:55:29.479Z,13.70
2018-09-18T08:57:59.026Z,12.70
2018-09-18T09:00:28.475Z,10.73
2018-09-18T09:02:57.734Z,12.33
2018-09-18T09:05:27.072Z,11.30
2018-09-18T09:07:56.343Z,11.43
2018-09-18T09:10:25.772Z,11.67
2018-09-18T09:12:55.049Z,13.00
2018-09-18T09:15:24.479Z,11.00
2018-09-18T09:17:53.796Z,12.60
2018-09-18T09:20:23.038Z,12.13
2018-09-18T09:22:53.486Z,12.50
2018-09-18T09:25:22.903Z,13.37
2018-09-18T09:27:52.320Z,11.73
2018-09-18T09:30:22.599Z,10.70
2018-09-18T09:32:51.949Z,12.03
2018-09-18T09:35:21.355Z,12.60
2018-09-18T09:37:50.830Z,12.73
2018-09-18T09:40:20.060Z,11.90
2018-09-18T09:42:49.431Z,12.77
2018-09-18T09:45:18.610Z,11.93
2018-09-18T09:47:48.064Z,12.53
2018-09-18T09:50:17.425Z,12.00
2018-09-18T09:52:46.902Z,12.03
2018-09-18T09:55:16.635Z,11.70
2018-09-18T09:57:46.057Z,11.83
2018-09-18T10:00:20.322Z,12.37
2018-09-18T10:02:49.955Z,10.70
2018-09-18T10:05:19.751Z,11.40
2018-09-18T10:07:49.267Z,11.40
2018-09-18T10:10:18.731Z,10.33
2018-09-18T10:12:48.004Z,11.30
2018-09-18T10:15:18.673Z,9.27
2018-09-18T10:17:48.231Z,10.63
2018-09-18T10:20:17.633Z,10.57
2018-09-18T10:22:47.236Z,10.63
2018-09-18T10:25:16.795Z,11.40
2018-09-18T10:27:46.301Z,11.00
2018-09-18T10:30:15.758Z,10.40
2018-09-18T10:32:46.017Z,9.83
2018-09-18T10:35:15.491Z,9.70
2018-09-18T10:37:45.085Z,9.60
2018-09-18T10:40:14.543Z,9.40
2018-09-18T10:42:44.475Z,9.40
2018-09-18T10:45:13.585Z,9.00
2018-09-18T10:47:43.020Z,9.47
2018-09-18T10:50:12.346Z,9.53
2018-09-18T10:52:43.238Z,10.83
2018-09-18T10:55:13.596Z,8.37
2018-09-18T10:57:42.886Z,10.00
2018-09-18T11:00:12.247Z,8.60
2018-09-18T11:02:41.616Z,8.30
2018-09-18T11:05:10.957Z,7.60
2018-09-18T11:07:41.279Z,7.60
2018-09-18T11:10:11.075Z,8.40
2018-09-18T11:12:41.407Z,8.60
2018-09-18T11:15:11.148Z,8.93
2018-09-18T11:17:40.969Z,8.43
2018-09-18T11:20:10.433Z,7.23
2018-09-18T11:22:39.886Z,7.23
2018-09-18T11:25:09.463Z,7.10
2018-09-18T11:27:38.922Z,6.50
2018-09-18T11:30:08.341Z,8.40
2018-09-18T11:32:38.088Z,7.73
2018-09-18T11:35:07.449Z,6.70
2018-09-18T11:37:36.873Z,6.67
2018-09-18T11:40:06.224Z,7.00
2018-09-18T11:42:35.448Z,6.40
2018-09-18T11:45:04.742Z,7.37
2018-09-18T11:47:35.682Z,6.53
2018-09-18T11:50:05.050Z,6.20
2018-09-18T11:52:35.893Z,6.87
2018-09-18T11:55:05.298Z,6.63
2018-09-18T11:57:35.892Z,7.00
2018-09-18T12:00:06.110Z,6.30
2018-09-18T12:02:35.550Z,6.90
2018-09-18T12:05:04.996Z,6.43
2018-09-18T12:07:34.489Z,5.67
2018-09-18T12:10:04.078Z,6.20
2018-09-18T12:12:33.526Z,6.63
2018-09-18T12:15:02.871Z,6.90
2018-09-18T12:17:33.305Z,6.20
2018-09-18T12:20:02.574Z,7.13
2018-09-18T12:22:32.185Z,6.33
2018-09-18T12:25:02.471Z,6.70
2018-09-18T12:27:31.972Z,5.93
2018-09-18T12:30:01.365Z,5.90
2018-09-18T12:32:30.842Z,5.77
2018-09-18T12:35:00.137Z,5.73
2018-09-18T12:37:30.360Z,5.77
2018-09-18T12:40:00.587Z,6.47
2018-09-18T12:42:30.165Z,6.00
2018-09-18T12:44:59.572Z,6.40
2018-09-18T12:47:29.356Z,6.30
2018-09-18T12:49:58.882Z,6.63
2018-09-18T12:52:28.125Z,6.20
2018-09-18T12:54:57.974Z,6.10
2018-09-18T12:57:28.007Z,5.80
2018-09-18T12:59:57.504Z,7.03
2018-09-18T13:02:27.105Z,6.23
2018-09-18T13:04:56.377Z,5.70
2018-09-18T13:07:26.334Z,6.10
2018-09-18T13:09:55.891Z,6.63
2018-09-18T13:12:25.979Z,6.27
2018-09-18T13:14:55.453Z,6.20
2018-09-18T13:17:24.914Z,5.87
2018-09-18T13:19:54.778Z,5.90
2018-09-18T13:22:24.156Z,6.27
2018-09-18T13:24:53.569Z,5.80
2018-09-18T13:27:22.837Z,6.47
2018-09-18T13:29:52.209Z,6.53
2018-09-18T13:32:21.563Z,6.10
2018-09-18T13:34:50.860Z,5.40
2018-09-18T13:37:20.121Z,5.87
2018-09-18T13:39:49.477Z,6.50
2018-09-18T13:42:18.743Z,5.30
2018-09-18T13:44:48.143Z,6.80
2018-09-18T13:47:17.637Z,6.30
2018-09-18T13:49:47.318Z,5.60
2018-09-18T13:52:16.810Z,5.37
2018-09-18T13:54:46.189Z,5.80
2018-09-18T13:57:15.776Z,5.53
2018-09-18T13:59:44.840Z,5.07
2018-09-18T14:02:14.332Z,6.03
2018-09-18T14:04:43.800Z,5.30
2018-09-18T14:07:13.160Z,6.90
2018-09-18T14:09:43.288Z,5.67
2018-09-18T14:12:12.650Z,5.93
2018-09-18T14:14:42.155Z,5.67
2018-09-18T14:17:11.511Z,6.57
2018-09-18T14:19:40.831Z,6.27
2018-09-18T14:22:10.296Z,5.60
2018-09-18T14:24:39.825Z,6.03
2018-09-18T14:27:09.416Z,6.43
2018-09-18T14:29:38.785Z,5.70
2018-09-18T14:32:08.273Z,5.40
2018-09-18T14:34:37.639Z,5.93
2018-09-18T14:37:07.378Z,6.70
2018-09-18T14:39:36.846Z,6.30
2018-09-18T14:42:06.350Z,6.20
2018-09-18T14:44:35.665Z,5.67
2018-09-18T14:47:05.030Z,6.70
2018-09-18T14:49:34.325Z,6.33
2018-09-18T14:52:03.770Z,5.90
2018-09-18T14:54:33.163Z,6.10
2018-09-18T14:57:02.582Z,6.50
2018-09-18T14:59:32.112Z,6.20
2018-09-18T15:02:01.470Z,6.40
2018-09-18T15:04:30.942Z,6.40
2018-09-18T15:07:00.417Z,6.37
2018-09-18T15:09:29.645Z,6.10
2018-09-18T15:11:58.913Z,5.50
2018-09-18T15:14:28.268Z,6.23
2018-09-18T15:16:57.512Z,6.80
2018-09-18T15:19:26.793Z,6.43
2018-09-18T15:21:56.204Z,7.30
2018-09-18T15:24:25.574Z,6.77
2018-09-18T15:26:55.884Z,6.87
2018-09-18T15:29:25.300Z,6.87
2018-09-18T15:31:54.605Z,7.53
2018-09-18T15:34:24.093Z,7.00
2018-09-18T15:36:53.621Z,7.00
2018-09-18T15:39:23.187Z,7.00
2018-09-18T15:41:52.560Z,7.80
2018-09-18T15:44:22.047Z,7.63
2018-09-18T15:46:51.412Z,7.10
2018-09-18T15:49:20.825Z,7.43
2018-09-18T15:51:50.344Z,7.70
2018-09-18T15:54:19.719Z,6.90
2018-09-18T15:56:49.398Z,7.17
2018-09-18T15:59:19.465Z,7.53
2018-09-18T16:01:48.910Z,6.57
2018-09-18T16:04:18.388Z,7.37
2018-09-18T16:06:47.862Z,7.30
2018-09-18T16:09:17.099Z,7.97
2018-09-18T16:11:46.534Z,7.97
2018-09-18T16:14:16.020Z,7.83
2018-09-18T16:16:45.689Z,9.40
2018-09-18T16:19:15.115Z,8.77
2018-09-18T16:21:44.551Z,7.77
2018-09-18T16:24:13.964Z,9.20
2018-09-18T16:26:43.457Z,8.40
2018-09-18T16:29:13.676Z,9.03
2018-09-18T16:31:42.740Z,7.93
2018-09-18T16:34:12.261Z,8.30
2018-09-18T16:36:41.772Z,8.90
2018-09-18T16:39:11.127Z,9.63
2018-09-18T16:41:41.610Z,9.03
2018-09-18T16:44:11.820Z,8.70
2018-09-18T16:46:41.407Z,8.00
2018-09-18T16:49:11.725Z,7.80
2018-09-18T16:51:41.078Z,8.00
2018-09-18T16:54:11.295Z,9.03
2018-09-18T16:56:40.866Z,9.00
2018-09-18T16:59:11.332Z,9.20
2018-09-18T17:01:42.126Z,9.83
2018-09-18T17:04:12.139Z,9.23
2018-09-18T17:06:42.292Z,10.33
2018-09-18T17:09:11.923Z,9.20
2018-09-18T17:11:41.169Z,9.13
2018-09-18T17:14:10.661Z,8.70
2018-09-18T17:16:39.823Z,9.10
2018-09-18T17:19:10.158Z,9.53
2018-09-18T17:21:39.235Z,7.93
2018-09-18T17:24:08.348Z,9.20
2018-09-18T17:26:37.438Z,9.57
2018-09-18T17:29:07.307Z,9.60
2018-09-18T17:31:36.429Z,9.10
2018-09-18T17:34:10.277Z,8.43
2018-09-18T17:36:39.983Z,9.10
2018-09-18T17:39:10.813Z,9.53
2018-09-18T17:41:40.190Z,9.07
2018-09-18T17:44:12.132Z,9.90
2018-09-18T17:46:41.203Z,8.90
2018-09-18T17:49:10.570Z,9.30
2018-09-18T17:51:39.783Z,9.37
2018-09-18T17:54:09.426Z,9.57
2018-09-18T17:56:38.609Z,10.60
2018-09-18T17:59:07.811Z,9.17
2018-09-18T18:01:37.003Z,11.30
2018-09-18T18:04:06.383Z,9.70
2018-09-18T18:06:35.750Z,9.23
2018-09-18T18:09:08.216Z,10.17
2018-09-18T18:11:38.454Z,9.13
2018-09-18T18:14:07.694Z,9.80
2018-09-18T18:16:36.823Z,10.90
2018-09-18T18:19:06.095Z,10.50
2018-09-18T18:21:36.639Z,10.77
2018-09-18T18:24:05.801Z,9.00
2018-09-18T18:26:35.594Z,8.00
2018-09-18T18:29:05.133Z,9.33
2018-09-18T18:31:34.962Z,10.70
2018-09-18T18:34:04.454Z,10.40
2018-09-18T18:36:34.075Z,10.97
2018-09-18T18:39:03.417Z,9.87
2018-09-18T18:41:33.441Z,11.40
2018-09-18T18:44:03.561Z,10.20
2018-09-18T18:46:33.085Z,9.10
2018-09-18T18:49:03.710Z,10.73
2018-09-18T18:51:32.906Z,10.80
2018-09-18T18:54:03.320Z,10.23
2018-09-18T18:56:33.159Z,11.10
2018-09-18T18:59:04.677Z,10.60
2018-09-18T19:01:35.007Z,11.40
2018-09-18T19:04:04.167Z,10.43
2018-09-18T19:06:34.615Z,10.87
2018-09-18T19:09:05.464Z,10.90
2018-09-18T19:11:36.159Z,11.20
2018-09-18T19:14:05.750Z,10.27
2018-09-18T19:16:35.459Z,10.53
2018-09-18T19:19:05.415Z,10.90
2018-09-18T19:21:35.815Z,9.03
2018-09-18T19:24:05.204Z,11.13
2018-09-18T19:26:42.585Z,10.80
2018-09-18T19:29:12.701Z,10.40
2018-09-18T19:31:42.241Z,11.80
2018-09-18T19:34:12.854Z,11.43
2018-09-18T19:36:42.478Z,11.47
2018-09-18T19:39:12.645Z,10.03
2018-09-18T19:41:42.734Z,11.67
2018-09-18T19:44:12.763Z,11.27
2018-09-18T19:46:43.261Z,11.60
2018-09-18T19:49:12.741Z,11.80
2018-09-18T19:51:42.198Z,11.60
2018-09-18T19:54:11.696Z,11.97
2018-09-18T19:56:41.162Z,11.20
2018-09-18T19:59:10.735Z,11.80
2018-09-18T20:01:40.208Z,12.80
2018-09-18T20:04:10.664Z,12.00
2018-09-18T20:06:40.971Z,11.77
2018-09-18T20:09:11.873Z,11.60
2018-09-18T20:11:41.260Z,11.87
2018-09-18T20:14:11.029Z,10.50
2018-09-18T20:16:40.529Z,11.23
2018-09-18T20:19:10.120Z,11.27
2018-09-18T20:21:39.453Z,10.20
2018-09-18T20:24:08.744Z,10.17
2018-09-18T20:26:38.270Z,11.20
2018-09-18T20:29:07.851Z,11.00
2018-09-18T20:31:37.502Z,11.80
2018-09-18T20:34:07.219Z,10.37
2018-09-18T20:36:37.073Z,11.70
2018-09-18T20:39:09.282Z,11.33
2018-09-18T20:41:38.709Z,11.37
2018-09-18T20:44:08.208Z,11.13
2018-09-18T20:46:37.451Z,11.10
2018-09-18T20:51:35.688Z,11.60
2018-09-18T20:54:04.796Z,12.53
2018-09-18T20:56:33.875Z,12.57
2018-09-18T20:59:03.044Z,14.27
2018-09-18T21:01:32.186Z,12.20
2018-09-18T21:04:01.339Z,12.70
2018-09-18T21:06:30.486Z,12.93
2018-09-18T21:08:59.702Z,12.07
2018-09-18T21:11:28.910Z,12.30
2018-09-18T21:13:57.974Z,11.83
2018-09-18T21:16:27.071Z,12.20
2018-09-18T21:18:56.188Z,12.80
2018-09-18T21:21:25.175Z,12.63
2018-09-18T21:23:54.256Z,12.50
2018-09-18T21:26:23.264Z,13.20
2018-09-18T21:28:52.457Z,13.40
2018-09-18T21:31:21.769Z,15.97
2018-09-18T21:33:50.791Z,15.57
2018-09-18T21:36:21.141Z,15.13
2018-09-18T21:38:50.207Z,15.10
2018-09-18T21:41:19.186Z,14.70
2018-09-18T21:43:48.305Z,14.53
2018-09-18T21:46:17.616Z,15.60
2018-09-18T21:48:46.599Z,14.80
2018-09-18T21:51:15.618Z,14.70
2018-09-18T21:53:44.710Z,15.20
2018-09-18T21:56:14.731Z,14.90
2018-09-18T21:58:44.893Z,13.90
2018-09-18T22:01:30.205Z,14.30
2018-09-18T22:03:59.695Z,15.07
2018-09-18T22:06:29.090Z,14.30
2018-09-18T22:08:58.348Z,14.90
2018-09-18T22:11:27.720Z,14.90
2018-09-18T22:13:56.982Z,13.33
2018-09-18T22:16:26.289Z,14.43
2018-09-18T22:18:55.997Z,12.23
2018-09-18T22:21:25.683Z,12.23
2018-09-18T22:23:55.142Z,11.83
2018-09-18T22:26:24.731Z,10.37
2018-09-18T22:28:54.033Z,11.73
2018-09-18T22:31:23.415Z,11.13
2018-09-18T22:33:53.255Z,9.07
2018-09-18T22:36:22.781Z,9.57
2018-09-18T22:38:52.047Z,8.80
2018-09-18T22:41:21.359Z,7.70
2018-09-18T22:43:50.602Z,8.07
2018-09-18T22:46:19.925Z,8.53
2018-09-18T22:48:49.255Z,7.73
2018-09-18T22:51:18.423Z,8.23
2018-09-18T22:53:47.880Z,8.70
2018-09-18T22:56:17.265Z,8.47
2018-09-18T22:58:46.081Z,8.40
2018-09-18T23:01:15.673Z,9.40
2018-09-18T23:03:45.209Z,8.80
2018-09-18T23:06:15.436Z,9.73
2018-09-18T23:08:45.162Z,8.83
2018-09-18T23:11:14.621Z,8.60
2018-09-18T23:13:44.009Z,8.20
2018-09-18T23:16:13.299Z,8.60
2018-09-18T23:18:42.760Z,9.00
2018-09-18T23:21:12.077Z,8.87
2018-09-18T23:23:41.517Z,8.00
2018-09-18T23:26:11.278Z,9.87
2018-09-18T23:28:40.889Z,9.40
2018-09-18T23:31:10.696Z,9.90
2018-09-18T23:33:40.044Z,12.50
2018-09-18T23:36:09.951Z,10.67
2018-09-18T23:38:39.230Z,11.60
2018-09-18T23:41:08.644Z,11.43
2018-09-18T23:43:38.142Z,11.27
2018-09-18T23:46:07.557Z,11.20
2018-09-18T23:48:36.741Z,12.13
2018-09-18T23:51:06.084Z,13.17
2018-09-18T23:53:36.066Z,12.03
2018-09-18T23:56:05.448Z,11.60
2018-09-18T23:58:34.745Z,11.20
